sensor_id;sensor_type;location;lat;lon;timestamp;pressure;altitude;pressure_sealevel;temperature;humidity
36222;BME280;22266;52.340;4.962;2022-09-23T00:01:01;101780.84;;;13.28;66.35
36222;BME280;22266;52.340;4.962;2022-09-23T00:03:30;101779.84;;;13.29;66.59
36222;BME280;22266;52.340;4.962;2022-09-23T00:06:01;101775.25;;;13.30;66.15
36222;BME280;22266;52.340;4.962;2022-09-23T00:08:29;101773.19;;;13.32;66.39
36222;BME280;22266;52.340;4.962;2022-09-23T00:10:56;101773.19;;;13.32;66.30
36222;BME280;22266;52.340;4.962;2022-09-23T00:13:24;101776.56;;;13.34;66.00
36222;BME280;22266;52.340;4.962;2022-09-23T00:15:51;101770.78;;;13.37;66.20
36222;BME280;22266;52.340;4.962;2022-09-23T00:18:17;101762.66;;;13.37;66.04
36222;BME280;22266;52.340;4.962;2022-09-23T00:20:46;101766.22;;;13.38;65.95
36222;BME280;22266;52.340;4.962;2022-09-23T00:23:12;101773.28;;;13.39;66.16
36222;BME280;22266;52.340;4.962;2022-09-23T00:25:39;101764.13;;;13.40;65.67
36222;BME280;22266;52.340;4.962;2022-09-23T00:28:05;101760.41;;;13.41;65.65
36222;BME280;22266;52.340;4.962;2022-09-23T00:30:32;101758.97;;;13.45;65.71
36222;BME280;22266;52.340;4.962;2022-09-23T00:32:58;101755.06;;;13.47;65.43
36222;BME280;22266;52.340;4.962;2022-09-23T00:35:25;101745.91;;;13.48;65.11
36222;BME280;22266;52.340;4.962;2022-09-23T00:37:51;101745.53;;;13.51;65.06
36222;BME280;22266;52.340;4.962;2022-09-23T00:40:18;101749.09;;;13.52;64.84
36222;BME280;22266;52.340;4.962;2022-09-23T00:42:46;101753.47;;;13.53;64.80
36222;BME280;22266;52.340;4.962;2022-09-23T00:45:14;101750.31;;;13.49;64.78
36222;BME280;22266;52.340;4.962;2022-09-23T00:47:52;101751.34;;;13.48;64.82
36222;BME280;22266;52.340;4.962;2022-09-23T00:52:58;101745.91;;;13.48;64.68
36222;BME280;22266;52.340;4.962;2022-09-23T00:55:28;101746.31;;;13.45;64.63
36222;BME280;22266;52.340;4.962;2022-09-23T00:57:57;101752.09;;;13.42;64.74
36222;BME280;22266;52.340;4.962;2022-09-23T01:00:25;101742.97;;;13.43;64.72
36222;BME280;22266;52.340;4.962;2022-09-23T01:02:52;101735.88;;;13.42;64.62
36222;BME280;22266;52.340;4.962;2022-09-23T01:05:19;101734.00;;;13.43;64.63
36222;BME280;22266;52.340;4.962;2022-09-23T01:07:46;101732.34;;;13.42;64.42
36222;BME280;22266;52.340;4.962;2022-09-23T01:10:15;101724.59;;;13.39;64.49
36222;BME280;22266;52.340;4.962;2022-09-23T01:18:27;101725.06;;;13.42;64.48
36222;BME280;22266;52.340;4.962;2022-09-23T01:26:55;101730.38;;;13.35;64.32
36222;BME280;22266;52.340;4.962;2022-09-23T01:32:44;101715.41;;;13.33;64.20
36222;BME280;22266;52.340;4.962;2022-09-23T01:35:24;101712.88;;;13.31;64.33
36222;BME280;22266;52.340;4.962;2022-09-23T01:38:13;101704.13;;;13.29;64.24
36222;BME280;22266;52.340;4.962;2022-09-23T01:43:58;101710.38;;;13.30;64.33
36222;BME280;22266;52.340;4.962;2022-09-23T01:46:34;101702.63;;;13.27;63.91
36222;BME280;22266;52.340;4.962;2022-09-23T01:49:09;101699.09;;;13.26;64.12
36222;BME280;22266;52.340;4.962;2022-09-23T01:51:42;101705.34;;;13.27;64.15
36222;BME280;22266;52.340;4.962;2022-09-23T01:57:25;101706.16;;;13.27;63.95
36222;BME280;22266;52.340;4.962;2022-09-23T02:00:00;101705.34;;;13.27;63.92
36222;BME280;22266;52.340;4.962;2022-09-23T02:05:13;101693.69;;;13.26;63.97
36222;BME280;22266;52.340;4.962;2022-09-23T02:07:54;101685.78;;;13.25;63.86
36222;BME280;22266;52.340;4.962;2022-09-23T02:10:31;101682.41;;;13.23;63.83
36222;BME280;22266;52.340;4.962;2022-09-23T02:13:03;101678.00;;;13.22;63.57
36222;BME280;22266;52.340;4.962;2022-09-23T02:15:46;101676.13;;;13.22;63.48
36222;BME280;22266;52.340;4.962;2022-09-23T02:18:19;101672.44;;;13.23;63.33
36222;BME280;22266;52.340;4.962;2022-09-23T02:20:49;101674.97;;;13.25;63.28
36222;BME280;22266;52.340;4.962;2022-09-23T02:23:25;101667.19;;;13.22;63.31
36222;BME280;22266;52.340;4.962;2022-09-23T02:26:17;101669.72;;;13.23;63.23
36222;BME280;22266;52.340;4.962;2022-09-23T02:29:08;101665.53;;;13.21;63.20
36222;BME280;22266;52.340;4.962;2022-09-23T02:31:47;101661.97;;;13.20;62.96
36222;BME280;22266;52.340;4.962;2022-09-23T02:40:00;101651.72;;;13.16;63.10
36222;BME280;22266;52.340;4.962;2022-09-23T02:42:46;101650.06;;;13.15;63.16
36222;BME280;22266;52.340;4.962;2022-09-23T02:45:13;101651.09;;;13.14;63.17
36222;BME280;22266;52.340;4.962;2022-09-23T02:47:43;101648.56;;;13.12;63.04
36222;BME280;22266;52.340;4.962;2022-09-23T02:50:12;101649.59;;;13.11;63.19
36222;BME280;22266;52.340;4.962;2022-09-23T02:52:39;101648.75;;;13.10;63.24
36222;BME280;22266;52.340;4.962;2022-09-23T02:55:07;101648.97;;;13.09;63.41
36222;BME280;22266;52.340;4.962;2022-09-23T02:57:37;101639.56;;;13.05;63.31
36222;BME280;22266;52.340;4.962;2022-09-23T03:00:04;101638.53;;;13.06;63.48
36222;BME280;22266;52.340;4.962;2022-09-23T03:02:49;101640.56;;;13.04;63.43
36222;BME280;22266;52.340;4.962;2022-09-23T03:05:22;101642.63;;;13.02;63.51
36222;BME280;22266;52.340;4.962;2022-09-23T03:15:52;101636.97;;;12.97;63.55
36222;BME280;22266;52.340;4.962;2022-09-23T03:18:35;101628.00;;;12.96;63.46
36222;BME280;22266;52.340;4.962;2022-09-23T03:21:07;101629.69;;;12.97;63.58
36222;BME280;22266;52.340;4.962;2022-09-23T03:23:38;101632.56;;;12.96;63.72
36222;BME280;22266;52.340;4.962;2022-09-23T03:26:16;101624.47;;;12.96;63.52
36222;BME280;22266;52.340;4.962;2022-09-23T03:28:44;101615.91;;;12.92;63.54
36222;BME280;22266;52.340;4.962;2022-09-23T03:31:13;101613.41;;;12.91;63.55
36222;BME280;22266;52.340;4.962;2022-09-23T03:33:44;101617.13;;;12.90;63.65
36222;BME280;22266;52.340;4.962;2022-09-23T03:36:13;101616.94;;;12.91;63.60
36222;BME280;22266;52.340;4.962;2022-09-23T03:39:05;101618.19;;;12.89;63.49
36222;BME280;22266;52.340;4.962;2022-09-23T03:41:41;101613.16;;;12.85;63.25
36222;BME280;22266;52.340;4.962;2022-09-23T03:44:10;101611.84;;;12.81;63.71
36222;BME280;22266;52.340;4.962;2022-09-23T03:46:37;101617.25;;;12.81;63.58
36222;BME280;22266;52.340;4.962;2022-09-23T03:49:15;101611.03;;;12.81;63.64
36222;BME280;22266;52.340;4.962;2022-09-23T03:51:42;101609.31;;;12.80;63.66
36222;BME280;22266;52.340;4.962;2022-09-23T03:54:10;101611.03;;;12.81;63.71
36222;BME280;22266;52.340;4.962;2022-09-23T03:56:36;101613.72;;;12.81;63.69
36222;BME280;22266;52.340;4.962;2022-09-23T03:59:03;101602.09;;;12.80;63.47
36222;BME280;22266;52.340;4.962;2022-09-23T04:01:29;101600.00;;;12.82;63.82
36222;BME280;22266;52.340;4.962;2022-09-23T04:03:56;101593.78;;;12.82;63.49
36222;BME280;22266;52.340;4.962;2022-09-23T04:06:22;101590.25;;;12.81;63.76
36222;BME280;22266;52.340;4.962;2022-09-23T04:08:48;101595.44;;;12.83;63.68
36222;BME280;22266;52.340;4.962;2022-09-23T04:11:15;101595.06;;;12.86;63.53
36222;BME280;22266;52.340;4.962;2022-09-23T04:13:42;101591.31;;;12.87;63.35
36222;BME280;22266;52.340;4.962;2022-09-23T04:16:08;101593.00;;;12.88;63.35
36222;BME280;22266;52.340;4.962;2022-09-23T04:18:34;101587.22;;;12.91;63.10
36222;BME280;22266;52.340;4.962;2022-09-23T04:21:01;101580.97;;;12.91;63.00
36222;BME280;22266;52.340;4.962;2022-09-23T04:23:27;101581.19;;;12.89;63.06
36222;BME280;22266;52.340;4.962;2022-09-23T04:25:54;101579.09;;;12.91;63.09
36222;BME280;22266;52.340;4.962;2022-09-23T04:28:20;101570.63;;;12.94;62.96
36222;BME280;22266;52.340;4.962;2022-09-23T04:30:48;101576.03;;;12.94;62.80
36222;BME280;22266;52.340;4.962;2022-09-23T04:33:15;101575.81;;;12.96;62.62
36222;BME280;22266;52.340;4.962;2022-09-23T04:35:41;101575.81;;;12.96;62.88
36222;BME280;22266;52.340;4.962;2022-09-23T04:38:10;101579.56;;;12.95;62.71
36222;BME280;22266;52.340;4.962;2022-09-23T04:40:37;101581.44;;;12.94;62.69
36222;BME280;22266;52.340;4.962;2022-09-23T04:43:04;101580.59;;;12.94;62.97
36222;BME280;22266;52.340;4.962;2022-09-23T04:45:31;101576.41;;;12.91;63.05
36222;BME280;22266;52.340;4.962;2022-09-23T04:47:57;101572.03;;;12.90;63.17
36222;BME280;22266;52.340;4.962;2022-09-23T04:50:25;101568.31;;;12.91;63.34
36222;BME280;22266;52.340;4.962;2022-09-23T04:52:52;101584.34;;;12.93;63.16
36222;BME280;22266;52.340;4.962;2022-09-23T04:55:20;101582.66;;;12.92;62.85
36222;BME280;22266;52.340;4.962;2022-09-23T04:57:46;101579.94;;;12.92;62.78
36222;BME280;22266;52.340;4.962;2022-09-23T05:00:13;101578.06;;;12.92;63.09
36222;BME280;22266;52.340;4.962;2022-09-23T05:02:48;101583.47;;;12.92;63.38
36222;BME280;22266;52.340;4.962;2022-09-23T05:05:16;101582.66;;;12.92;63.25
36222;BME280;22266;52.340;4.962;2022-09-23T05:07:46;101588.03;;;12.92;63.22
36222;BME280;22266;52.340;4.962;2022-09-23T05:10:14;101588.88;;;12.92;63.23
36222;BME280;22266;52.340;4.962;2022-09-23T05:12:40;101587.03;;;12.93;63.64
36222;BME280;22266;52.340;4.962;2022-09-23T05:15:07;101589.91;;;12.91;63.67
36222;BME280;22266;52.340;4.962;2022-09-23T05:17:33;101587.22;;;12.91;63.54
36222;BME280;22266;52.340;4.962;2022-09-23T05:20:03;101585.09;;;12.86;63.68
36222;BME280;22266;52.340;4.962;2022-09-23T05:22:30;101585.47;;;12.83;63.41
36222;BME280;22266;52.340;4.962;2022-09-23T05:24:56;101578.84;;;12.86;63.64
36222;BME280;22266;52.340;4.962;2022-09-23T05:27:24;101582.19;;;12.88;63.74
36222;BME280;22266;52.340;4.962;2022-09-23T05:29:51;101582.84;;;12.90;63.46
36222;BME280;22266;52.340;4.962;2022-09-23T05:32:18;101584.34;;;12.93;63.29
36222;BME280;22266;52.340;4.962;2022-09-23T05:34:45;101584.13;;;12.94;63.17
36222;BME280;22266;52.340;4.962;2022-09-23T05:37:11;101586.00;;;12.94;63.25
36222;BME280;22266;52.340;4.962;2022-09-23T05:39:38;101590.56;;;12.93;63.32
36222;BME280;22266;52.340;4.962;2022-09-23T05:42:04;101592.44;;;12.93;63.61
36222;BME280;22266;52.340;4.962;2022-09-23T05:44:31;101582.28;;;12.95;63.44
36222;BME280;22266;52.340;4.962;2022-09-23T05:46:57;101589.34;;;12.96;63.51
36222;BME280;22266;52.340;4.962;2022-09-23T05:49:24;101579.38;;;12.96;63.57
36222;BME280;22266;52.340;4.962;2022-09-23T05:52:10;101585.81;;;12.95;63.42
36222;BME280;22266;52.340;4.962;2022-09-23T05:54:37;101580.59;;;12.94;63.86
36222;BME280;22266;52.340;4.962;2022-09-23T05:57:03;101591.22;;;12.95;63.74
36222;BME280;22266;52.340;4.962;2022-09-23T05:59:31;101583.94;;;12.96;63.77
36222;BME280;22266;52.340;4.962;2022-09-23T06:01:58;101588.97;;;12.99;64.01
36222;BME280;22266;52.340;4.962;2022-09-23T06:04:25;101590.47;;;13.01;63.62
36222;BME280;22266;52.340;4.962;2022-09-23T06:06:51;101590.25;;;13.03;63.64
36222;BME280;22266;52.340;4.962;2022-09-23T06:09:18;101587.94;;;13.00;63.84
36222;BME280;22266;52.340;4.962;2022-09-23T06:11:44;101587.56;;;13.03;64.38
36222;BME280;22266;52.340;4.962;2022-09-23T06:14:12;101589.03;;;13.05;63.93
36222;BME280;22266;52.340;4.962;2022-09-23T06:16:39;101585.31;;;13.06;63.93
36222;BME280;22266;52.340;4.962;2022-09-23T06:19:06;101580.56;;;13.08;63.60
36222;BME280;22266;52.340;4.962;2022-09-23T06:21:35;101587.63;;;13.09;63.87
36222;BME280;22266;52.340;4.962;2022-09-23T06:24:02;101588.66;;;13.08;63.81
36222;BME280;22266;52.340;4.962;2022-09-23T06:26:29;101589.75;;;13.14;64.80
36222;BME280;22266;52.340;4.962;2022-09-23T06:28:59;101594.78;;;13.17;64.38
36222;BME280;22266;52.340;4.962;2022-09-23T06:31:27;101592.06;;;13.17;64.50
36222;BME280;22266;52.340;4.962;2022-09-23T06:33:54;101591.03;;;13.18;64.16
36222;BME280;22266;52.340;4.962;2022-09-23T06:36:34;101584.97;;;13.16;63.97
36222;BME280;22266;52.340;4.962;2022-09-23T06:39:10;101586.22;;;13.14;63.93
36222;BME280;22266;52.340;4.962;2022-09-23T06:41:36;101581.63;;;13.14;63.79
36222;BME280;22266;52.340;4.962;2022-09-23T06:44:08;101577.53;;;13.18;63.88
36222;BME280;22266;52.340;4.962;2022-09-23T06:46:35;101591.88;;;13.19;64.08
36222;BME280;22266;52.340;4.962;2022-09-23T06:49:02;101580.69;;;13.22;63.98
36222;BME280;22266;52.340;4.962;2022-09-23T06:51:28;101581.50;;;13.22;63.84
36222;BME280;22266;52.340;4.962;2022-09-23T06:53:55;101587.41;;;13.26;64.01
36222;BME280;22266;52.340;4.962;2022-09-23T06:56:22;101578.03;;;13.28;63.81
36222;BME280;22266;52.340;4.962;2022-09-23T06:58:50;101583.28;;;13.30;63.86
36222;BME280;22266;52.340;4.962;2022-09-23T07:01:17;101575.78;;;13.32;63.82
36222;BME280;22266;52.340;4.962;2022-09-23T07:03:45;101575.63;;;13.33;63.85
36222;BME280;22266;52.340;4.962;2022-09-23T07:06:13;101578.31;;;13.33;63.82
36222;BME280;22266;52.340;4.962;2022-09-23T07:08:42;101581.03;;;13.33;63.80
36222;BME280;22266;52.340;4.962;2022-09-23T07:11:10;101576.47;;;13.34;63.43
36222;BME280;22266;52.340;4.962;2022-09-23T07:13:39;101579.41;;;13.39;63.58
36222;BME280;22266;52.340;4.962;2022-09-23T07:16:07;101581.91;;;13.41;63.55
36222;BME280;22266;52.340;4.962;2022-09-23T07:18:34;101582.56;;;13.43;63.21
36222;BME280;22266;52.340;4.962;2022-09-23T07:21:13;101568.66;;;13.46;63.25
36222;BME280;22266;52.340;4.962;2022-09-23T07:23:42;101582.22;;;13.52;63.30
36222;BME280;22266;52.340;4.962;2022-09-23T07:26:09;101583.50;;;13.56;62.97
36222;BME280;22266;52.340;4.962;2022-09-23T07:28:35;101574.16;;;13.59;62.94
36222;BME280;22266;52.340;4.962;2022-09-23T07:31:13;101580.03;;;13.63;62.89
36222;BME280;22266;52.340;4.962;2022-09-23T07:33:42;101583.16;;;13.66;63.11
36222;BME280;22266;52.340;4.962;2022-09-23T07:36:17;101583.78;;;13.68;63.32
36222;BME280;22266;52.340;4.962;2022-09-23T07:38:45;101575.50;;;13.70;63.27
36222;BME280;22266;52.340;4.962;2022-09-23T07:41:15;101578.00;;;13.71;63.03
36222;BME280;22266;52.340;4.962;2022-09-23T07:43:43;101575.28;;;13.71;62.98
36222;BME280;22266;52.340;4.962;2022-09-23T07:46:12;101577.41;;;13.76;62.80
36222;BME280;22266;52.340;4.962;2022-09-23T07:48:40;101581.59;;;13.78;62.67
36222;BME280;22266;52.340;4.962;2022-09-23T07:51:15;101579.13;;;13.83;62.98
36222;BME280;22266;52.340;4.962;2022-09-23T07:53:48;101571.66;;;13.85;62.94
36222;BME280;22266;52.340;4.962;2022-09-23T07:56:15;101577.06;;;13.85;62.91
36222;BME280;22266;52.340;4.962;2022-09-23T07:58:45;101575.81;;;13.88;62.70
36222;BME280;22266;52.340;4.962;2022-09-23T08:01:11;101576.91;;;13.94;62.90
36222;BME280;22266;52.340;4.962;2022-09-23T08:03:38;101581.91;;;13.97;63.21
36222;BME280;22266;52.340;4.962;2022-09-23T08:06:11;101581.97;;;14.03;63.20
36222;BME280;22266;52.340;4.962;2022-09-23T08:08:39;101584.06;;;14.08;63.13
36222;BME280;22266;52.340;4.962;2022-09-23T08:11:10;101571.59;;;14.14;63.36
36222;BME280;22266;52.340;4.962;2022-09-23T08:13:38;101576.22;;;14.20;62.98
36222;BME280;22266;52.340;4.962;2022-09-23T08:16:05;101582.69;;;14.25;62.89
36222;BME280;22266;52.340;4.962;2022-09-23T08:18:32;101588.78;;;14.27;63.13
36222;BME280;22266;52.340;4.962;2022-09-23T08:20:59;101591.66;;;14.26;62.88
36222;BME280;22266;52.340;4.962;2022-09-23T08:23:25;101580.44;;;14.29;62.97
36222;BME280;22266;52.340;4.962;2022-09-23T08:25:59;101590.03;;;14.31;63.29
36222;BME280;22266;52.340;4.962;2022-09-23T08:28:27;101585.06;;;14.35;63.24
36222;BME280;22266;52.340;4.962;2022-09-23T08:30:53;101585.06;;;14.35;63.41
36222;BME280;22266;52.340;4.962;2022-09-23T08:33:21;101583.63;;;14.39;63.49
36222;BME280;22266;52.340;4.962;2022-09-23T08:35:49;101579.66;;;14.42;63.96
36222;BME280;22266;52.340;4.962;2022-09-23T08:38:16;101581.34;;;14.43;63.77
36222;BME280;22266;52.340;4.962;2022-09-23T08:40:47;101583.84;;;14.44;63.84
36222;BME280;22266;52.340;4.962;2022-09-23T08:43:28;101581.13;;;14.44;63.99
36222;BME280;22266;52.340;4.962;2022-09-23T08:46:00;101578.44;;;14.44;63.66
36222;BME280;22266;52.340;4.962;2022-09-23T08:48:30;101577.38;;;14.45;64.23
36222;BME280;22266;52.340;4.962;2022-09-23T08:51:04;101569.72;;;14.49;64.23
36222;BME280;22266;52.340;4.962;2022-09-23T08:53:36;101567.19;;;14.47;63.63
36222;BME280;22266;52.340;4.962;2022-09-23T08:56:12;101569.72;;;14.49;64.00
36222;BME280;22266;52.340;4.962;2022-09-23T08:59:10;101568.28;;;14.53;64.10
36222;BME280;22266;52.340;4.962;2022-09-23T09:04:26;101575.63;;;14.59;64.32
36222;BME280;22266;52.340;4.962;2022-09-23T09:13:03;101568.13;;;14.68;64.63
36222;BME280;22266;52.340;4.962;2022-09-23T09:15:40;101570.63;;;14.69;64.54
36222;BME280;22266;52.340;4.962;2022-09-23T09:18:29;101565.22;;;14.69;64.54
36222;BME280;22266;52.340;4.962;2022-09-23T09:21:10;101576.03;;;14.69;64.18
36222;BME280;22266;52.340;4.962;2022-09-23T09:23:57;101577.53;;;14.72;64.28
36222;BME280;22266;52.340;4.962;2022-09-23T09:26:31;101581.91;;;14.73;64.16
36222;BME280;22266;52.340;4.962;2022-09-23T09:29:04;101580.84;;;14.74;64.27
36222;BME280;22266;52.340;4.962;2022-09-23T09:31:55;101585.25;;;14.75;64.04
36222;BME280;22266;52.340;4.962;2022-09-23T09:36:57;101576.09;;;14.76;64.53
36222;BME280;22266;52.340;4.962;2022-09-23T09:39:33;101570.66;;;14.76;64.45
36222;BME280;22266;52.340;4.962;2022-09-23T09:42:01;101566.06;;;14.76;64.40
36222;BME280;22266;52.340;4.962;2022-09-23T09:53:35;101564.88;;;14.92;64.96
36222;BME280;22266;52.340;4.962;2022-09-23T09:56:10;101560.28;;;14.99;65.05
36222;BME280;22266;52.340;4.962;2022-09-23T09:58:59;101564.28;;;15.03;64.98
36222;BME280;22266;52.340;4.962;2022-09-23T10:01:26;101565.72;;;15.06;65.42
36222;BME280;22266;52.340;4.962;2022-09-23T10:03:55;101564.88;;;15.05;65.06
36222;BME280;22266;52.340;4.962;2022-09-23T10:06:27;101556.56;;;15.07;65.36
36222;BME280;22266;52.340;4.962;2022-09-23T10:11:31;101543.84;;;15.07;65.18
36222;BME280;22266;52.340;4.962;2022-09-23T10:14:15;101555.72;;;15.13;65.21
36222;BME280;22266;52.340;4.962;2022-09-23T10:16:45;101553.66;;;15.15;65.33
36222;BME280;22266;52.340;4.962;2022-09-23T10:19:27;101543.63;;;15.16;64.98
36222;BME280;22266;52.340;4.962;2022-09-23T10:21:57;101545.50;;;15.15;65.06
36222;BME280;22266;52.340;4.962;2022-09-23T10:24:28;101541.09;;;15.14;65.06
36222;BME280;22266;52.340;4.962;2022-09-23T10:27:01;101541.75;;;15.16;64.90
36222;BME280;22266;52.340;4.962;2022-09-23T10:29:59;101541.75;;;15.16;65.16
36222;BME280;22266;52.340;4.962;2022-09-23T10:32:29;101535.91;;;15.19;65.18
36222;BME280;22266;52.340;4.962;2022-09-23T10:37:40;101531.31;;;15.20;65.27
36222;BME280;22266;52.340;4.962;2022-09-23T10:43:23;101537.78;;;15.25;65.06
36222;BME280;22266;52.340;4.962;2022-09-23T10:46:19;101551.56;;;15.30;64.99
36222;BME280;22266;52.340;4.962;2022-09-23T11:03:48;101543.44;;;15.44;65.08
36222;BME280;22266;52.340;4.962;2022-09-23T11:09:27;101543.41;;;15.50;65.03
36222;BME280;22266;52.340;4.962;2022-09-23T11:17:35;101543.22;;;15.52;65.34
36222;BME280;22266;52.340;4.962;2022-09-23T11:20:32;101540.06;;;15.55;65.31
36222;BME280;22266;52.340;4.962;2022-09-23T11:29:12;101538.63;;;15.52;65.40
36222;BME280;22266;52.340;4.962;2022-09-23T11:37:24;101532.97;;;15.61;65.93
36222;BME280;22266;52.340;4.962;2022-09-23T11:40:10;101531.72;;;15.63;65.68
36222;BME280;22266;52.340;4.962;2022-09-23T11:42:52;101529.66;;;15.65;65.63
36222;BME280;22266;52.340;4.962;2022-09-23T11:45:24;101528.41;;;15.68;65.59
36222;BME280;22266;52.340;4.962;2022-09-23T11:47:57;101522.75;;;15.69;65.49
36222;BME280;22266;52.340;4.962;2022-09-23T11:50:31;101522.13;;;15.74;65.76
36222;BME280;22266;52.340;4.962;2022-09-23T11:53:22;101511.88;;;15.82;65.59
36222;BME280;22266;52.340;4.962;2022-09-23T11:55:58;101506.44;;;15.89;65.15
36222;BME280;22266;52.340;4.962;2022-09-23T11:58:30;101506.19;;;15.97;65.02
36222;BME280;22266;52.340;4.962;2022-09-23T12:01:06;101503.44;;;16.04;64.95
36222;BME280;22266;52.340;4.962;2022-09-23T12:03:48;101500.94;;;16.09;64.82
36222;BME280;22266;52.340;4.962;2022-09-23T12:06:22;101510.75;;;16.17;64.53
36222;BME280;22266;52.340;4.962;2022-09-23T12:08:58;101497.09;;;16.23;64.91
36222;BME280;22266;52.340;4.962;2022-09-23T12:11:46;101495.63;;;16.27;64.47
36222;BME280;22266;52.340;4.962;2022-09-23T12:14:35;101488.09;;;16.29;64.58
36222;BME280;22266;52.340;4.962;2022-09-23T12:17:12;101486.22;;;16.30;64.54
36222;BME280;22266;52.340;4.962;2022-09-23T12:25:44;101486.22;;;16.30;63.94
36222;BME280;22266;52.340;4.962;2022-09-23T12:28:35;101482.69;;;16.29;64.02
36222;BME280;22266;52.340;4.962;2022-09-23T12:31:08;101484.09;;;16.32;64.07
36222;BME280;22266;52.340;4.962;2022-09-23T12:33:37;101478.47;;;16.34;63.63
36222;BME280;22266;52.340;4.962;2022-09-23T12:36:09;101480.38;;;16.33;63.77
36222;BME280;22266;52.340;4.962;2022-09-23T12:38:40;101476.78;;;16.32;63.75
36222;BME280;22266;52.340;4.962;2022-09-23T12:49:50;101473.66;;;16.36;63.27
36222;BME280;22266;52.340;4.962;2022-09-23T12:54:47;101461.75;;;16.37;63.61
36222;BME280;22266;52.340;4.962;2022-09-23T13:08:02;101454.78;;;16.47;63.74
36222;BME280;22266;52.340;4.962;2022-09-23T13:10:40;101459.59;;;16.45;63.48
36222;BME280;22266;52.340;4.962;2022-09-23T13:13:20;101458.13;;;16.49;63.48
36222;BME280;22266;52.340;4.962;2022-09-23T13:15:49;101453.06;;;16.53;63.76
36222;BME280;22266;52.340;4.962;2022-09-23T13:20:52;101451.13;;;16.60;63.56
36222;BME280;22266;52.340;4.962;2022-09-23T13:23:26;101452.75;;;16.68;63.42
36222;BME280;22266;52.340;4.962;2022-09-23T13:25:59;101446.66;;;16.72;63.28
36222;BME280;22266;52.340;4.962;2022-09-23T13:28:42;101445.81;;;16.78;63.13
36222;BME280;22266;52.340;4.962;2022-09-23T13:31:18;101445.16;;;16.83;63.31
36222;BME280;22266;52.340;4.962;2022-09-23T13:33:50;101442.81;;;16.87;63.24
36222;BME280;22266;52.340;4.962;2022-09-23T13:36:18;101440.09;;;16.87;63.04
36222;BME280;22266;52.340;4.962;2022-09-23T13:38:45;101439.03;;;16.88;62.92
36222;BME280;22266;52.340;4.962;2022-09-23T13:41:14;101444.47;;;16.88;63.03
36222;BME280;22266;52.340;4.962;2022-09-23T13:43:46;101441.53;;;16.89;62.97
36222;BME280;22266;52.340;4.962;2022-09-23T13:46:19;101437.59;;;16.85;63.40
36222;BME280;22266;52.340;4.962;2022-09-23T13:48:50;101444.75;;;16.79;62.90
36222;BME280;22266;52.340;4.962;2022-09-23T13:51:29;101439.31;;;16.79;63.22
36222;BME280;22266;52.340;4.962;2022-09-23T13:54:00;101434.72;;;16.80;63.16
36222;BME280;22266;52.340;4.962;2022-09-23T13:56:29;101425.50;;;16.81;63.82
36222;BME280;22266;52.340;4.962;2022-09-23T14:02:09;101423.63;;;16.82;63.52
36222;BME280;22266;52.340;4.962;2022-09-23T14:04:36;101423.84;;;16.80;63.48
36222;BME280;22266;52.340;4.962;2022-09-23T14:07:03;101414.63;;;16.81;63.43
36222;BME280;22266;52.340;4.962;2022-09-23T14:09:30;101422.34;;;16.84;64.00
36222;BME280;22266;52.340;4.962;2022-09-23T14:11:58;101417.72;;;16.85;63.72
36222;BME280;22266;52.340;4.962;2022-09-23T14:14:27;101422.97;;;16.86;64.11
36222;BME280;22266;52.340;4.962;2022-09-23T14:16:56;101416.06;;;16.84;63.70
36222;BME280;22266;52.340;4.962;2022-09-23T14:19:24;101416.69;;;16.86;64.07
36222;BME280;22266;52.340;4.962;2022-09-23T14:21:55;101412.91;;;16.87;63.93
36222;BME280;22266;52.340;4.962;2022-09-23T14:24:24;101412.91;;;16.87;63.94
36222;BME280;22266;52.340;4.962;2022-09-23T14:26:58;101409.38;;;16.86;63.71
36222;BME280;22266;52.340;4.962;2022-09-23T14:29:37;101400.97;;;16.88;63.68
36222;BME280;22266;52.340;4.962;2022-09-23T14:32:16;101401.59;;;16.90;64.07
36222;BME280;22266;52.340;4.962;2022-09-23T14:37:31;101396.75;;;16.92;64.08
36222;BME280;22266;52.340;4.962;2022-09-23T14:45:23;101390.50;;;16.91;64.63
36222;BME280;22266;52.340;4.962;2022-09-23T14:47:55;101390.50;;;16.91;64.45
36222;BME280;22266;52.340;4.962;2022-09-23T14:50:26;101391.31;;;16.92;64.67
36222;BME280;22266;52.340;4.962;2022-09-23T14:53:30;101384.00;;;16.92;64.59
36222;BME280;22266;52.340;4.962;2022-09-23T14:59:02;101377.13;;;16.90;65.27
36222;BME280;22266;52.340;4.962;2022-09-23T15:01:36;101369.56;;;16.92;65.57
36222;BME280;22266;52.340;4.962;2022-09-23T15:06:52;101372.53;;;16.90;65.66
36222;BME280;22266;52.340;4.962;2022-09-23T15:09:23;101381.72;;;16.89;65.95
36222;BME280;22266;52.340;4.962;2022-09-23T15:12:04;101376.25;;;16.89;65.95
36222;BME280;22266;52.340;4.962;2022-09-23T15:14:38;101372.28;;;16.92;66.24
36222;BME280;22266;52.340;4.962;2022-09-23T15:17:29;101374.78;;;16.93;66.16
36222;BME280;22266;52.340;4.962;2022-09-23T15:20:07;101366.84;;;16.92;66.78
36222;BME280;22266;52.340;4.962;2022-09-23T15:22:44;101373.56;;;16.89;66.55
36222;BME280;22266;52.340;4.962;2022-09-23T15:25:15;101373.56;;;16.89;66.66
36222;BME280;22266;52.340;4.962;2022-09-23T15:30:23;101370.00;;;16.89;67.01
36222;BME280;22266;52.340;4.962;2022-09-23T15:32:50;101368.34;;;16.88;67.33
36222;BME280;22266;52.340;4.962;2022-09-23T15:35:19;101371.91;;;16.88;67.09
36222;BME280;22266;52.340;4.962;2022-09-23T15:37:48;101371.69;;;16.90;67.40
36222;BME280;22266;52.340;4.962;2022-09-23T15:40:24;101373.34;;;16.91;67.43
36222;BME280;22266;52.340;4.962;2022-09-23T15:42:56;101364.56;;;16.89;67.80
36222;BME280;22266;52.340;4.962;2022-09-23T15:45:37;101363.53;;;16.90;67.88
36222;BME280;22266;52.340;4.962;2022-09-23T15:48:12;101367.28;;;16.89;67.98